Pray, Montana
Current Conditions -  °F | °C
As of 2:53 PM on Thursday 27 Nov 2014 (Local Time) from KLVM Reporting Station
Broken Clouds Broken Clouds  
Wind Chill: 58°   Ceiling: 8500
Heat Index: 58°   Visibility: 10mi
Dew Point: 29°   Wind: 31mph
Humidity: 33%   Direction: 230°SW
Pressure: 29.91"   Gusts: 39mph
Location:  45.38°N, 110.68°W
Report Text: KLVM 272153Z AUTO 23027G34KT 10SM BKN085 14/M02 A2991 RMK AO2 PK WND 21039/2119 SLP111 T01441017
Loading
Personal Weather Stations






























Interactive Weather Map New forecast layout! Learn more

10-Day Weather Forecast

Advertisements
Track Severe Weather on mobile